createdAt,value
2023-02-14T00:00:48.751Z,53.53
2023-02-14T00:03:16.070Z,63.83
2023-02-14T00:05:43.100Z,162.82
2023-02-14T00:08:10.178Z,72.68
2023-02-14T00:10:37.229Z,58.55
2023-02-14T00:13:04.864Z,58.67
2023-02-14T00:15:31.870Z,50.88
2023-02-14T00:18:03.070Z,54.90
2023-02-14T00:20:30.010Z,63.47
2023-02-14T00:22:56.804Z,53.08
2023-02-14T00:25:23.675Z,54.92
2023-02-14T00:27:51.384Z,51.47
2023-02-14T00:30:18.276Z,58.58
2023-02-14T00:32:45.084Z,56.33
2023-02-14T00:35:12.350Z,52.40
2023-02-14T00:37:39.090Z,57.28
2023-02-14T00:40:06.978Z,50.65
2023-02-14T00:42:33.886Z,52.33
2023-02-14T00:45:01.050Z,54.60
2023-02-14T00:47:27.901Z,44.40
2023-02-14T00:49:54.822Z,47.35
2023-02-14T00:52:21.697Z,46.80
2023-02-14T00:54:48.655Z,46.25
2023-02-14T00:57:15.780Z,46.70
2023-02-14T00:59:42.623Z,50.83
2023-02-14T01:02:09.707Z,52.10
2023-02-14T01:04:36.665Z,44.67
2023-02-14T01:07:03.680Z,47.50
2023-02-14T01:09:30.576Z,53.28
2023-02-14T01:11:57.439Z,45.58
2023-02-14T01:14:24.271Z,37.92
2023-02-14T01:16:51.251Z,43.17
2023-02-14T01:19:18.226Z,48.65
2023-02-14T01:21:45.194Z,42.00
2023-02-14T01:24:12.953Z,42.97
2023-02-14T01:26:40.056Z,53.10
2023-02-14T01:29:07.314Z,50.92
2023-02-14T01:31:35.640Z,45.78
2023-02-14T01:34:02.940Z,42.13
2023-02-14T01:36:38.797Z,44.47
2023-02-14T01:39:13.643Z,41.63
2023-02-14T01:41:42.925Z,40.42
2023-02-14T01:44:15.551Z,43.38
2023-02-14T01:46:44.288Z,42.67
2023-02-14T01:49:14.114Z,46.33
2023-02-14T01:51:48.998Z,50.25
2023-02-14T01:54:17.850Z,50.72
2023-02-14T01:56:51.198Z,48.15
2023-02-14T01:59:22.602Z,39.08
2023-02-14T02:01:50.543Z,39.67
2023-02-14T02:04:22.568Z,42.38
2023-02-14T02:06:56.264Z,40.45
2023-02-14T02:09:26.669Z,50.38
2023-02-14T02:11:53.505Z,44.15
2023-02-14T02:14:22.873Z,46.60
2023-02-14T02:17:20.554Z,51.38
2023-02-14T02:19:50.303Z,44.58
2023-02-14T02:22:41.340Z,46.15
2023-02-14T02:25:46.054Z,47.22
2023-02-14T02:28:24.927Z,46.60
2023-02-14T02:31:25.110Z,43.53
2023-02-14T02:34:07.068Z,43.50
2023-02-14T02:37:04.967Z,51.63
2023-02-14T02:39:53.849Z,42.63
2023-02-14T02:42:44.852Z,43.00
2023-02-14T02:45:57.376Z,39.38
2023-02-14T02:51:13.919Z,53.95
2023-02-14T02:53:59.080Z,60.90
2023-02-14T02:56:47.480Z,61.45
2023-02-14T02:59:24.584Z,51.88
2023-02-14T03:02:03.519Z,58.63
2023-02-14T03:04:51.005Z,59.38
2023-02-14T03:07:35.871Z,65.15
2023-02-14T03:10:17.143Z,60.45
2023-02-14T03:13:10.715Z,63.47
2023-02-14T03:16:15.151Z,66.68
2023-02-14T03:19:40.634Z,70.97
2023-02-14T03:22:14.218Z,60.90
2023-02-14T03:25:18.140Z,61.00
2023-02-14T03:27:52.728Z,68.60
2023-02-14T03:30:28.513Z,66.00
2023-02-14T03:36:29.586Z,59.42
2023-02-14T03:39:05.982Z,67.95
2023-02-14T03:42:08.969Z,59.88
2023-02-14T03:44:37.426Z,62.63
2023-02-14T03:47:18.466Z,67.25
2023-02-14T03:49:51.347Z,74.03
2023-02-14T03:52:20.163Z,72.03
2023-02-14T03:54:52.229Z,64.40
2023-02-14T03:57:23.610Z,66.88
2023-02-14T03:59:50.786Z,65.68
2023-02-14T04:02:31.178Z,68.40
2023-02-14T04:04:59.890Z,67.03
2023-02-14T04:07:28.989Z,76.28
2023-02-14T04:09:55.774Z,71.78
2023-02-14T04:12:36.878Z,68.38
2023-02-14T04:15:05.703Z,71.20
2023-02-14T04:17:51.348Z,69.82
2023-02-14T04:20:18.343Z,71.00
2023-02-14T04:22:46.426Z,66.22
2023-02-14T04:25:13.770Z,66.32
2023-02-14T04:27:40.726Z,62.90
2023-02-14T04:30:08.279Z,69.65
2023-02-14T04:32:35.077Z,64.03
2023-02-14T04:35:01.913Z,63.58
2023-02-14T04:37:28.713Z,71.35
2023-02-14T04:39:55.450Z,65.28
2023-02-14T04:42:22.430Z,76.70
2023-02-14T04:44:49.246Z,73.43
2023-02-14T04:47:15.979Z,71.65
2023-02-14T04:49:42.759Z,64.18
2023-02-14T04:52:09.552Z,65.28
2023-02-14T04:54:36.455Z,67.53
2023-02-14T04:57:03.195Z,72.45
2023-02-14T04:59:30.384Z,71.82
2023-02-14T05:01:57.286Z,67.47
2023-02-14T05:04:24.764Z,70.90
2023-02-14T05:06:51.694Z,75.18
2023-02-14T05:09:18.745Z,62.40
2023-02-14T05:11:45.590Z,72.40
2023-02-14T05:14:13.781Z,67.85
2023-02-14T05:16:40.686Z,75.68
2023-02-14T05:19:07.670Z,74.20
2023-02-14T05:21:34.449Z,74.20
2023-02-14T05:24:01.622Z,82.97
2023-02-14T05:26:35.914Z,80.90
2023-02-14T05:29:02.721Z,73.93
2023-02-14T05:32:06.573Z,81.43
2023-02-14T05:35:24.429Z,70.50
2023-02-14T05:38:01.813Z,78.32
2023-02-14T05:40:29.018Z,71.97
2023-02-14T05:43:13.992Z,73.97
2023-02-14T05:45:40.757Z,75.43
2023-02-14T05:48:07.580Z,71.85
2023-02-14T05:50:34.439Z,77.30
2023-02-14T05:53:01.376Z,84.03
2023-02-14T05:56:14.119Z,84.32
2023-02-14T05:58:41.074Z,91.05
2023-02-14T06:01:07.939Z,83.35
2023-02-14T06:03:34.759Z,81.50
2023-02-14T06:06:01.796Z,83.78
2023-02-14T06:08:28.697Z,85.95
2023-02-14T06:10:55.532Z,91.35
2023-02-14T06:13:22.391Z,90.63
2023-02-14T06:15:49.168Z,83.32
2023-02-14T06:18:16.089Z,89.72
2023-02-14T06:20:42.822Z,82.22
2023-02-14T06:23:10.061Z,80.30
2023-02-14T06:25:37.283Z,81.55
2023-02-14T06:28:04.348Z,82.65
2023-02-14T06:30:31.849Z,94.70
2023-02-14T06:32:59.109Z,77.35
2023-02-14T06:35:26.263Z,88.70
2023-02-14T06:37:53.227Z,83.15
2023-02-14T06:40:30.022Z,79.80
2023-02-14T06:43:05.421Z,83.43
2023-02-14T06:45:32.861Z,81.43
2023-02-14T06:48:03.951Z,78.55
2023-02-14T06:50:42.255Z,91.55
2023-02-14T06:53:09.103Z,80.00
2023-02-14T06:55:36.117Z,91.55
2023-02-14T06:58:24.144Z,85.10
2023-02-14T07:00:50.914Z,86.43
2023-02-14T07:03:17.787Z,81.93
2023-02-14T07:05:45.202Z,87.32
2023-02-14T07:08:12.256Z,79.43
2023-02-14T07:10:39.373Z,89.15
2023-02-14T07:13:06.274Z,90.63
2023-02-14T07:15:33.176Z,81.55
2023-02-14T07:17:59.980Z,91.55
2023-02-14T07:20:26.989Z,83.40
2023-02-14T07:22:54.981Z,83.13
2023-02-14T07:25:22.025Z,85.00
2023-02-14T07:27:48.870Z,85.82
2023-02-14T07:30:16.090Z,94.78
2023-02-14T07:32:42.973Z,106.30
2023-02-14T07:35:09.944Z,106.38
2023-02-14T07:37:36.924Z,94.13
2023-02-14T07:40:06.162Z,88.13
2023-02-14T07:42:34.329Z,96.90
2023-02-14T07:45:09.381Z,93.70
2023-02-14T07:47:51.568Z,84.53
2023-02-14T07:50:19.261Z,89.00
2023-02-14T07:52:46.322Z,84.50
2023-02-14T07:55:15.940Z,92.43
2023-02-14T07:57:42.703Z,105.28
2023-02-14T08:00:09.948Z,91.68
2023-02-14T08:02:36.787Z,79.35
2023-02-14T08:05:03.712Z,75.32
2023-02-14T08:07:30.546Z,96.22
2023-02-14T08:09:57.466Z,87.70
2023-02-14T08:12:42.696Z,86.78
2023-02-14T08:15:28.349Z,86.72
2023-02-14T08:20:23.057Z,81.32
2023-02-14T08:22:49.979Z,93.88
2023-02-14T08:25:16.803Z,89.80
2023-02-14T08:27:43.627Z,82.53
2023-02-14T08:30:10.820Z,81.93
2023-02-14T08:32:40.527Z,94.95
2023-02-14T08:35:07.814Z,95.93
2023-02-14T08:37:34.946Z,82.95
2023-02-14T08:40:01.759Z,80.63
2023-02-14T08:42:29.677Z,97.75
2023-02-14T08:44:56.661Z,90.03
2023-02-14T08:47:23.585Z,83.45
2023-02-14T08:49:50.404Z,87.72
2023-02-14T08:52:17.471Z,85.20
2023-02-14T08:54:44.210Z,76.78
2023-02-14T08:57:10.943Z,83.70
2023-02-14T08:59:37.664Z,86.95
2023-02-14T09:02:04.404Z,83.28
2023-02-14T09:04:31.224Z,75.75
2023-02-14T09:06:58.022Z,92.00
2023-02-14T09:09:24.851Z,77.70
2023-02-14T09:11:51.715Z,83.70
2023-02-14T09:14:20.636Z,82.18
2023-02-14T09:16:47.650Z,76.95
2023-02-14T09:19:14.503Z,76.03
2023-02-14T09:21:41.655Z,69.43
2023-02-14T09:24:08.536Z,82.60
2023-02-14T09:26:36.877Z,87.22
2023-02-14T09:29:03.750Z,85.13
2023-02-14T09:31:30.739Z,85.55
2023-02-14T09:33:57.590Z,76.97
2023-02-14T09:36:24.466Z,74.78
2023-02-14T09:38:51.238Z,77.00
2023-02-14T09:41:48.254Z,71.40
2023-02-14T09:44:37.332Z,69.53
2023-02-14T09:47:15.281Z,75.03
2023-02-14T09:49:42.548Z,75.57
2023-02-14T09:52:15.609Z,80.35
2023-02-14T09:54:46.961Z,76.50
2023-02-14T09:57:16.678Z,80.43
2023-02-14T09:59:47.182Z,80.25
2023-02-14T10:02:38.556Z,74.00
2023-02-14T10:05:25.233Z,67.25
2023-02-14T10:07:58.097Z,71.75
2023-02-14T10:10:46.559Z,72.40
2023-02-14T10:13:40.809Z,69.35
2023-02-14T10:16:27.114Z,60.22
2023-02-14T10:19:04.236Z,61.72
2023-02-14T10:21:51.682Z,65.00
2023-02-14T10:24:23.698Z,79.32
2023-02-14T10:26:52.846Z,72.40
2023-02-14T10:29:20.894Z,67.00
2023-02-14T10:32:04.168Z,69.50
2023-02-14T10:34:57.261Z,68.93
2023-02-14T10:37:45.720Z,64.82
2023-02-14T10:40:41.764Z,61.33
2023-02-14T10:45:48.660Z,73.93
2023-02-14T10:48:20.259Z,63.08
2023-02-14T10:50:56.098Z,66.72
2023-02-14T10:53:40.835Z,66.68
2023-02-14T10:56:38.471Z,73.88
2023-02-14T10:59:21.876Z,61.20
2023-02-14T11:01:52.011Z,67.38
2023-02-14T11:04:21.574Z,67.13
2023-02-14T11:06:50.281Z,63.08
2023-02-14T11:09:21.209Z,62.05
2023-02-14T11:11:54.546Z,66.68
2023-02-14T11:14:24.340Z,65.40
2023-02-14T11:16:52.547Z,60.22
2023-02-14T11:19:19.385Z,63.30
2023-02-14T11:21:48.342Z,64.38
2023-02-14T11:24:18.166Z,61.90
2023-02-14T11:26:49.897Z,55.65
2023-02-14T11:29:25.438Z,54.80
2023-02-14T11:31:52.801Z,56.88
2023-02-14T11:34:34.042Z,54.13
2023-02-14T11:37:01.232Z,62.33
2023-02-14T11:39:37.152Z,59.15
2023-02-14T11:42:06.124Z,62.88
2023-02-14T11:44:36.784Z,54.22
2023-02-14T11:47:27.218Z,59.83
2023-02-14T11:49:57.250Z,54.60
2023-02-14T11:52:26.746Z,50.58
2023-02-14T11:54:54.964Z,47.55
2023-02-14T11:57:24.370Z,52.65
2023-02-14T11:59:54.132Z,51.13
2023-02-14T12:02:20.899Z,56.55
2023-02-14T12:04:50.194Z,56.65
2023-02-14T12:07:21.835Z,51.65
2023-02-14T12:10:25.180Z,58.22
2023-02-14T12:13:25.048Z,48.85
2023-02-14T12:15:57.328Z,50.50
2023-02-14T12:18:39.656Z,56.65
2023-02-14T12:21:18.626Z,58.88
2023-02-14T12:23:56.841Z,51.40
2023-02-14T12:26:32.642Z,55.47
2023-02-14T12:29:34.283Z,49.50
2023-02-14T12:32:21.538Z,58.65
2023-02-14T12:34:49.551Z,55.92
2023-02-14T12:37:28.472Z,58.17
2023-02-14T12:40:27.943Z,54.50
2023-02-14T12:43:20.702Z,54.80
2023-02-14T12:45:56.450Z,48.03
2023-02-14T12:48:32.115Z,62.42
2023-02-14T12:51:12.431Z,55.75
2023-02-14T12:54:01.290Z,54.47
2023-02-14T12:56:31.507Z,55.67
2023-02-14T12:59:38.200Z,53.15
2023-02-14T13:02:13.892Z,54.17
2023-02-14T13:04:46.776Z,53.33
2023-02-14T13:07:47.382Z,54.63
2023-02-14T13:10:51.994Z,59.08
2023-02-14T13:13:56.595Z,45.38
2023-02-14T13:16:46.208Z,52.47
2023-02-14T13:19:12.989Z,57.80
2023-02-14T13:21:41.060Z,51.80
2023-02-14T13:24:29.744Z,48.00
2023-02-14T13:27:00.973Z,57.63
2023-02-14T13:29:32.600Z,53.30
2023-02-14T13:32:03.079Z,52.50
2023-02-14T13:34:32.981Z,54.88
2023-02-14T13:37:02.667Z,51.92
2023-02-14T13:39:40.534Z,60.38
2023-02-14T13:42:08.241Z,54.75
2023-02-14T13:44:52.649Z,58.85
2023-02-14T13:47:24.855Z,54.53
2023-02-14T13:49:56.948Z,53.05
2023-02-14T13:52:44.026Z,59.85
2023-02-14T13:55:21.579Z,51.45
2023-02-14T13:58:01.070Z,61.63
2023-02-14T14:00:41.782Z,57.97
2023-02-14T14:03:15.589Z,54.78
2023-02-14T14:05:48.193Z,52.55
2023-02-14T14:08:21.171Z,52.67
2023-02-14T14:10:53.952Z,45.72
2023-02-14T14:13:42.371Z,54.35
2023-02-14T14:16:24.576Z,43.25
2023-02-14T14:18:56.885Z,50.75
2023-02-14T14:21:26.682Z,48.35
2023-02-14T14:24:15.213Z,48.92
2023-02-14T14:26:59.906Z,47.47
2023-02-14T14:29:46.467Z,50.47
2023-02-14T14:32:30.351Z,44.53
2023-02-14T14:35:00.364Z,47.17
2023-02-14T14:37:33.189Z,45.95
2023-02-14T14:40:06.402Z,43.08
2023-02-14T14:42:37.288Z,44.13
2023-02-14T14:45:29.084Z,47.88
2023-02-14T14:47:58.441Z,49.80
2023-02-14T14:50:31.557Z,47.22
2023-02-14T14:53:09.425Z,51.15
2023-02-14T14:55:38.269Z,52.08
2023-02-14T14:58:09.029Z,46.08
2023-02-14T15:00:38.837Z,49.58
2023-02-14T15:03:14.750Z,55.80
2023-02-14T15:05:44.651Z,47.65
2023-02-14T15:08:23.141Z,47.95
2023-02-14T15:10:57.133Z,56.67
2023-02-14T15:13:49.664Z,48.33
2023-02-14T15:16:20.986Z,57.08
2023-02-14T15:18:49.288Z,55.55
2023-02-14T15:21:17.873Z,50.47
2023-02-14T15:23:45.926Z,52.10
2023-02-14T15:26:29.226Z,57.85
2023-02-14T15:28:59.626Z,60.67
2023-02-14T15:31:34.645Z,58.75
2023-02-14T15:34:03.094Z,57.65
2023-02-14T15:36:32.272Z,68.28
2023-02-14T15:39:01.010Z,62.58
2023-02-14T15:41:27.935Z,63.53
2023-02-14T15:43:56.899Z,56.80
2023-02-14T15:46:33.627Z,59.88
2023-02-14T15:49:05.360Z,55.50
2023-02-14T15:51:36.363Z,58.50
2023-02-14T15:54:07.537Z,56.58
2023-02-14T15:56:42.924Z,64.88
2023-02-14T15:59:31.830Z,54.67
2023-02-14T16:02:17.073Z,56.58
2023-02-14T16:04:44.432Z,61.50
2023-02-14T16:07:27.565Z,56.78
2023-02-14T16:10:23.773Z,59.20
2023-02-14T16:13:20.600Z,53.60
2023-02-14T16:16:14.240Z,59.65
2023-02-14T16:18:47.799Z,69.55
2023-02-14T16:21:19.613Z,66.75
2023-02-14T16:24:13.089Z,58.55
2023-02-14T16:26:42.159Z,54.13
2023-02-14T16:29:15.776Z,62.50
2023-02-14T16:32:14.173Z,61.78
2023-02-14T16:34:36.993Z,61.38
2023-02-14T16:37:17.074Z,55.63
2023-02-14T16:39:45.513Z,59.22
2023-02-14T16:42:17.082Z,61.47
2023-02-14T16:44:45.002Z,63.13
2023-02-14T16:47:13.955Z,65.90
2023-02-14T16:49:41.280Z,65.43
2023-02-14T16:52:15.889Z,67.40
2023-02-14T16:54:42.909Z,60.47
2023-02-14T16:57:19.708Z,60.33
2023-02-14T16:59:46.938Z,65.15
2023-02-14T17:02:13.907Z,66.35
2023-02-14T17:04:40.694Z,60.55
2023-02-14T17:07:08.020Z,66.43
2023-02-14T17:09:41.104Z,59.38
2023-02-14T17:12:14.772Z,61.33
2023-02-14T17:14:44.656Z,63.15
2023-02-14T17:17:12.000Z,62.72
2023-02-14T17:19:39.032Z,65.47
2023-02-14T17:22:06.295Z,56.67
2023-02-14T17:24:33.282Z,59.55
2023-02-14T17:27:00.222Z,65.95
2023-02-14T17:29:27.139Z,61.67
2023-02-14T17:31:54.013Z,71.57
2023-02-14T17:34:20.919Z,64.50
2023-02-14T17:36:47.703Z,62.50
2023-02-14T17:39:14.938Z,68.65
2023-02-14T17:41:41.718Z,68.28
2023-02-14T17:44:08.664Z,60.90
2023-02-14T17:46:37.772Z,66.88
2023-02-14T17:49:04.643Z,70.13
2023-02-14T17:51:31.540Z,65.85
2023-02-14T17:53:59.068Z,64.70
2023-02-14T17:56:26.626Z,62.42
2023-02-14T17:58:55.190Z,80.53
2023-02-14T18:01:24.591Z,76.90
2023-02-14T18:03:53.036Z,70.60
2023-02-14T18:06:20.078Z,77.57
2023-02-14T18:08:49.821Z,72.63
2023-02-14T18:11:18.527Z,92.55
2023-02-14T18:13:45.460Z,102.78
2023-02-14T18:16:15.757Z,84.13
2023-02-14T18:18:44.106Z,72.75
2023-02-14T18:21:13.750Z,77.13
2023-02-14T18:23:40.688Z,86.90
2023-02-14T18:26:12.055Z,81.75
2023-02-14T18:28:39.503Z,81.32
2023-02-14T18:31:09.322Z,84.55
2023-02-14T18:33:36.833Z,69.57
2023-02-14T18:36:11.770Z,81.53
2023-02-14T18:38:42.997Z,79.43
2023-02-14T18:41:12.644Z,72.45
2023-02-14T18:43:41.149Z,67.22
2023-02-14T18:46:11.498Z,74.55
2023-02-14T18:48:39.046Z,84.05
2023-02-14T18:51:13.730Z,92.72
2023-02-14T18:53:41.916Z,82.60
2023-02-14T18:56:22.084Z,96.25
2023-02-14T18:58:52.783Z,84.35
2023-02-14T19:01:25.196Z,76.47
2023-02-14T19:03:53.917Z,71.82
2023-02-14T19:06:21.551Z,84.43
2023-02-14T19:08:49.217Z,75.15
2023-02-14T19:11:22.085Z,87.93
2023-02-14T19:13:52.195Z,90.90
2023-02-14T19:16:22.512Z,72.78
2023-02-14T19:18:53.784Z,82.10
2023-02-14T19:21:25.917Z,85.43
2023-02-14T19:23:54.639Z,89.57
2023-02-14T19:26:24.340Z,86.00
2023-02-14T19:28:56.137Z,75.65
2023-02-14T19:31:23.515Z,92.30
2023-02-14T19:33:50.640Z,100.13
2023-02-14T19:36:20.059Z,89.03
2023-02-14T19:38:50.252Z,96.15
2023-02-14T19:41:24.072Z,86.18
2023-02-14T19:43:51.599Z,88.53
2023-02-14T19:46:20.294Z,97.93
2023-02-14T19:48:47.922Z,89.70
2023-02-14T19:51:22.462Z,81.68
2023-02-14T19:53:49.779Z,74.70
2023-02-14T19:56:21.350Z,66.40
2023-02-14T19:58:49.236Z,64.43
2023-02-14T20:01:34.547Z,82.22
2023-02-14T20:06:31.816Z,56.30
2023-02-14T20:08:58.631Z,69.20
2023-02-14T20:11:35.533Z,70.88
2023-02-14T20:14:03.536Z,75.13
2023-02-14T20:16:33.275Z,71.93
2023-02-14T20:19:08.251Z,88.93
2023-02-14T20:24:03.699Z,65.57
2023-02-14T20:26:33.146Z,83.13
2023-02-14T20:29:03.717Z,86.60
2023-02-14T20:31:32.237Z,88.50
2023-02-14T20:33:59.624Z,79.50
2023-02-14T20:36:27.321Z,84.55
2023-02-14T20:39:01.487Z,75.55
2023-02-14T20:41:29.791Z,69.28
2023-02-14T20:44:05.731Z,71.90
2023-02-14T20:46:33.696Z,72.32
2023-02-14T20:49:00.682Z,68.82
2023-02-14T20:51:27.824Z,71.63
2023-02-14T20:53:54.950Z,71.13
2023-02-14T20:56:23.520Z,72.35
2023-02-14T20:58:50.917Z,70.70
2023-02-14T21:01:23.495Z,70.00
2023-02-14T21:03:51.941Z,74.97
2023-02-14T21:06:27.229Z,76.60
2023-02-14T21:08:54.055Z,64.15
2023-02-14T21:11:22.682Z,69.60
2023-02-14T21:13:49.832Z,75.43
2023-02-14T21:16:19.195Z,74.70
2023-02-14T21:18:49.124Z,79.20
2023-02-14T21:21:21.640Z,68.97
2023-02-14T21:23:50.922Z,76.00
2023-02-14T21:26:18.896Z,75.80
2023-02-14T21:28:46.257Z,83.85
2023-02-14T21:31:15.186Z,70.82
2023-02-14T21:33:41.996Z,74.82
2023-02-14T21:36:13.711Z,95.53
2023-02-14T21:38:41.237Z,108.47
2023-02-14T21:41:13.848Z,79.40
2023-02-14T21:43:45.625Z,72.22
2023-02-14T21:46:27.101Z,68.50
2023-02-14T21:49:13.756Z,83.78
2023-02-14T21:51:40.705Z,78.97
2023-02-14T21:54:08.181Z,74.57
2023-02-14T21:56:36.317Z,67.55
2023-02-14T21:59:03.653Z,69.28
2023-02-14T22:01:33.006Z,84.13
2023-02-14T22:04:00.861Z,61.92
2023-02-14T22:06:28.080Z,66.45
2023-02-14T22:08:56.870Z,77.18
2023-02-14T22:11:29.098Z,93.97
2023-02-14T22:13:56.811Z,85.80
2023-02-14T22:16:24.749Z,83.20
2023-02-14T22:18:52.043Z,81.43
2023-02-14T22:21:22.244Z,71.63
2023-02-14T22:23:49.687Z,68.30
2023-02-14T22:26:25.733Z,70.63
2023-02-14T22:28:56.731Z,81.38
2023-02-14T22:31:25.958Z,74.68
2023-02-14T22:33:53.271Z,75.28
2023-02-14T22:36:20.451Z,72.30
2023-02-14T22:38:47.238Z,74.55
2023-02-14T22:41:16.431Z,69.95
2023-02-14T22:43:44.319Z,81.72
2023-02-14T22:46:19.775Z,73.10
2023-02-14T22:48:48.120Z,62.13
2023-02-14T22:51:34.153Z,71.80
2023-02-14T22:54:13.406Z,78.00
2023-02-14T22:56:48.927Z,83.03
2023-02-14T22:59:24.563Z,73.55
2023-02-14T23:01:52.724Z,72.38
2023-02-14T23:04:21.787Z,85.97
2023-02-14T23:06:49.101Z,79.82
2023-02-14T23:09:15.947Z,71.95
2023-02-14T23:11:44.351Z,75.82
2023-02-14T23:14:31.719Z,79.47
2023-02-14T23:17:17.293Z,84.80
2023-02-14T23:20:03.481Z,83.95
2023-02-14T23:22:32.309Z,75.75
2023-02-14T23:25:03.447Z,73.63
2023-02-14T23:27:43.320Z,74.93
2023-02-14T23:30:13.862Z,83.57
2023-02-14T23:32:40.818Z,75.50
2023-02-14T23:35:07.684Z,75.82
2023-02-14T23:37:34.525Z,74.32
2023-02-14T23:40:01.348Z,84.97
2023-02-14T23:42:28.257Z,85.40
2023-02-14T23:45:15.022Z,92.47
2023-02-14T23:47:41.851Z,93.50
2023-02-14T23:50:09.118Z,95.85
2023-02-14T23:52:38.486Z,84.47
2023-02-14T23:55:05.763Z,83.68
2023-02-14T23:57:32.482Z,79.35
